Time;durP1;ratioP1;P1;durP2;ratioP2;P2;SDS_P1;SDS_P2;PMS_P1;PMS_P2;Temp;Humidity;BMP_temperature;BMP_pressure;BME280_temperature;BME280_humidity;BME280_pressure;Samples;Min_cycle;Max_cycle;Signal;HPM_P1;HPM_P2
2020/12/29 00:01:34;;;;;;;8.18;6.50;;;;;;;0.47;87.25;93115.44;5071539;28;20056;-79
2020/12/29 00:04:02;;;;;;;13.93;9.52;;;;;;;0.48;86.63;93117.00;5073737;28;20059;-79
2020/12/29 00:06:28;;;;;;;7.40;6.20;;;;;;;0.49;86.72;93114.19;5073640;28;20503;-79
2020/12/29 00:08:54;;;;;;;12.68;9.45;;;;;;;0.51;85.99;93114.72;5073464;28;20049;-79
2020/12/29 00:11:20;;;;;;;18.55;14.50;;;;;;;0.53;86.32;93109.34;5073295;28;20064;-79
2020/12/29 00:13:47;;;;;;;10.48;7.60;;;;;;;0.56;85.84;93098.53;5071539;28;20053;-79
2020/12/29 00:16:14;;;;;;;4.55;3.47;;;;;;;0.56;86.19;93101.13;5073028;28;20412;-79
2020/12/29 00:18:40;;;;;;;9.18;8.27;;;;;;;0.58;86.21;93109.41;5071873;28;20053;-79
2020/12/29 00:21:06;;;;;;;5.53;5.03;;;;;;;0.57;86.02;93118.94;5054889;28;20056;-79
2020/12/29 00:23:32;;;;;;;4.88;3.22;;;;;;;0.58;86.03;93117.13;5073401;28;20469;-79
2020/12/29 00:25:59;;;;;;;3.65;2.58;;;;;;;0.58;86.11;93122.28;5071623;28;20477;-79
2020/12/29 00:28:25;;;;;;;3.15;2.65;;;;;;;0.60;86.22;93118.44;5054742;28;20056;-79
2020/12/29 00:30:51;;;;;;;3.20;2.40;;;;;;;0.60;86.25;93123.59;5073093;28;20403;-79
2020/12/29 00:33:17;;;;;;;3.20;2.28;;;;;;;0.63;86.25;93122.38;5073097;28;20049;-79
2020/12/29 00:35:43;;;;;;;2.22;1.83;;;;;;;0.64;85.83;93123.94;5071286;28;20047;-79
2020/12/29 00:38:09;;;;;;;2.90;2.35;;;;;;;0.67;85.99;93138.91;5053939;28;20053;-79
2020/12/29 00:40:35;;;;;;;2.42;2.20;;;;;;;0.71;86.02;93139.22;5072381;28;20479;-79
2020/12/29 00:43:02;;;;;;;3.03;2.00;;;;;;;0.71;86.01;93127.09;5071891;28;20040;-79
2020/12/29 00:45:28;;;;;;;2.78;2.10;;;;;;;0.70;86.32;93129.94;5054541;28;20059;-79
2020/12/29 00:47:54;;;;;;;1.90;1.70;;;;;;;0.70;85.85;93133.28;5070822;28;20052;-78
2020/12/29 00:50:20;;;;;;;2.15;1.95;;;;;;;0.71;86.17;93149.53;5071097;28;20052;-78
2020/12/29 00:52:46;;;;;;;2.53;2.33;;;;;;;0.67;85.97;93131.16;5038429;28;20039;-78
2020/12/29 00:55:12;;;;;;;4.55;3.05;;;;;;;0.60;86.60;93143.47;5072971;28;20400;-78
2020/12/29 00:57:38;;;;;;;3.50;2.97;;;;;;;0.56;86.70;93140.56;5072958;28;20075;-78
2020/12/29 01:00:05;;;;;;;4.07;2.97;;;;;;;0.54;86.63;93137.44;5054385;28;20469;-78
2020/12/29 01:02:32;;;;;;;4.68;3.00;;;;;;;0.55;86.82;93143.41;5072260;28;20041;-77
2020/12/29 01:04:58;;;;;;;3.72;2.78;;;;;;;0.54;86.75;93141.81;5072626;28;20045;-77
2020/12/29 01:07:24;;;;;;;2.97;2.47;;;;;;;0.53;87.35;93140.28;5072718;28;20052;-77
2020/12/29 01:09:50;;;;;;;3.80;2.55;;;;;;;0.50;88.06;93135.59;5072968;28;20049;-77
2020/12/29 01:12:16;;;;;;;3.13;2.50;;;;;;;0.50;87.84;93135.59;5054605;28;20089;-77
2020/12/29 01:14:42;;;;;;;3.13;2.60;;;;;;;0.53;87.92;93137.69;5072731;28;20064;-77
2020/12/29 01:17:09;;;;;;;5.20;2.85;;;;;;;0.54;88.42;93141.81;5070640;28;20055;-77
2020/12/29 01:19:35;;;;;;;5.15;2.58;;;;;;;0.55;88.29;93146.75;5072639;28;20056;-77
2020/12/29 01:22:01;;;;;;;5.07;2.88;;;;;;;0.54;89.43;93155.50;5071422;28;20491;-76
2020/12/29 01:24:27;;;;;;;4.05;2.95;;;;;;;0.53;89.37;93161.69;5038209;28;20146;-77
2020/12/29 01:26:56;;;;;;;3.95;2.90;;;;;;;0.56;89.36;93165.56;5054126;28;20048;-76
2020/12/29 01:29:23;;;;;;;3.35;2.30;;;;;;;0.57;89.45;93159.41;5070790;28;20476;-76
2020/12/29 01:31:49;;;;;;;3.65;2.95;;;;;;;0.58;89.38;93159.16;5072442;28;20040;-76
2020/12/29 01:34:16;;;;;;;3.13;2.45;;;;;;;0.62;89.38;93163.84;5071437;28;20111;-75
2020/12/29 01:36:42;;;;;;;4.78;2.70;;;;;;;0.62;89.68;93149.16;5070785;28;20053;-75
2020/12/29 01:39:08;;;;;;;2.92;2.42;;;;;;;0.63;89.20;93158.47;5072271;28;20503;-75
2020/12/29 01:41:35;;;;;;;4.07;2.58;;;;;;;0.67;89.44;93159.53;5072769;28;20037;-75
2020/12/29 01:44:15;;;;;;;3.42;2.80;;;;;;;0.69;90.71;93156.72;5054105;28;20056;-75
2020/12/29 01:46:51;;;;;;;3.00;2.28;;;;;;;0.70;90.11;93156.50;5072168;28;20048;-75
2020/12/29 01:49:19;;;;;;;2.92;2.33;;;;;;;0.73;89.85;93158.59;5072237;28;20040;-75
2020/12/29 01:51:45;;;;;;;2.63;2.30;;;;;;;0.75;89.61;93156.53;5075956;28;20028;-75
2020/12/29 01:54:11;;;;;;;3.65;2.28;;;;;;;0.76;89.84;93157.34;5074288;28;20049;-76
2020/12/29 01:56:41;;;;;;;4.20;2.20;;;;;;;0.79;89.99;93164.59;5076498;28;20047;-75
2020/12/29 01:59:11;;;;;;;2.80;2.22;;;;;;;0.80;89.59;93164.38;5074262;28;20055;-75
2020/12/29 02:01:44;;;;;;;2.83;2.15;;;;;;;0.81;90.34;93167.72;5076005;28;20464;-76
2020/12/29 02:04:13;;;;;;;2.10;1.90;;;;;;;0.84;89.89;93172.41;5074032;28;20049;-75
2020/12/29 02:06:39;;;;;;;3.88;2.00;;;;;;;0.86;89.95;93174.75;5057150;28;20496;-76
2020/12/29 02:09:08;;;;;;;3.15;1.92;;;;;;;0.87;89.61;93169.34;5073967;28;20052;-76
2020/12/29 02:11:35;;;;;;;2.08;1.63;;;;;;;0.91;89.61;93169.66;5073821;28;20051;-76
2020/12/29 02:14:02;;;;;;;1.52;1.42;;;;;;;0.92;89.83;93163.47;5073494;28;20048;-76
2020/12/29 02:16:29;;;;;;;3.53;2.38;;;;;;;0.94;89.54;93166.59;5074457;28;20052;-76
2020/12/29 02:18:55;;;;;;;3.53;1.40;;;;;;;0.97;89.53;93189.34;5074845;28;20408;-76
2020/12/29 02:21:21;;;;;;;4.32;1.83;;;;;;;0.98;89.60;93186.50;5075324;28;20041;-76
2020/12/29 02:23:48;;;;;;;4.22;1.42;;;;;;;1.01;89.51;93187.84;5074833;28;20480;-76
2020/12/29 02:26:14;;;;;;;1.83;1.40;;;;;;;1.00;89.85;93192.22;5073550;28;20040;-76
2020/12/29 02:28:40;;;;;;;2.72;1.80;;;;;;;1.00;89.49;93202.53;5057029;28;20052;-77
2020/12/29 02:31:06;;;;;;;1.75;1.58;;;;;;;0.98;90.21;93199.41;5041094;28;20040;-76
2020/12/29 02:33:35;;;;;;;1.83;1.48;;;;;;;0.99;89.97;93200.22;5073655;28;20047;-76
2020/12/29 02:36:01;;;;;;;1.45;1.30;;;;;;;0.99;90.17;93205.38;5056589;28;20055;-76
2020/12/29 02:38:27;;;;;;;3.03;1.45;;;;;;;1.00;89.74;93199.19;5073359;28;20044;-76
2020/12/29 02:40:53;;;;;;;1.85;1.40;;;;;;;1.01;90.07;93211.84;5074548;28;20055;-78
2020/12/29 02:43:19;;;;;;;1.75;1.30;;;;;;;0.98;90.48;93208.97;5057068;28;20044;-76
2020/12/29 02:45:46;;;;;;;2.50;1.60;;;;;;;0.99;90.38;93224.19;5056519;28;20041;-76
2020/12/29 02:48:12;;;;;;;1.48;1.30;;;;;;;0.97;90.77;93223.66;5074323;28;20051;-76
2020/12/29 02:50:38;;;;;;;2.00;1.50;;;;;;;0.97;90.37;93231.41;5074896;28;20047;-76
2020/12/29 02:53:04;;;;;;;1.20;1.10;;;;;;;0.96;90.97;93231.63;5057011;28;20045;-76
2020/12/29 02:55:30;;;;;;;1.75;1.63;;;;;;;0.95;90.82;93236.00;5072837;28;20048;-76
2020/12/29 02:57:56;;;;;;;2.03;1.42;;;;;;;0.95;90.96;93242.97;5074604;28;20067;-76
2020/12/29 03:00:23;;;;;;;1.35;1.25;;;;;;;0.95;91.12;93242.97;5072722;28;20056;-76
2020/12/29 03:02:49;;;;;;;1.10;1.05;;;;;;;0.92;90.50;93259.69;5073454;28;20045;-76
2020/12/29 03:05:16;;;;;;;1.48;1.17;;;;;;;0.89;90.50;93256.81;5040237;28;20029;-75
2020/12/29 03:07:42;;;;;;;1.48;1.33;;;;;;;0.82;90.22;93259.56;5073995;28;20048;-75
2020/12/29 03:10:09;;;;;;;1.10;1.00;;;;;;;0.74;90.74;93258.16;5056059;28;20044;-75
2020/12/29 03:12:39;;;;;;;2.28;1.05;;;;;;;0.65;91.26;93253.63;5074081;28;20059;-76
2020/12/29 03:15:07;;;;;;;1.63;1.25;;;;;;;0.53;91.80;93264.78;5074310;28;20056;-77
2020/12/29 03:17:35;;;;;;;1.70;1.00;;;;;;;0.53;91.32;93267.38;5073792;28;20048;-75
2020/12/29 03:20:03;;;;;;;1.77;1.08;;;;;;;0.47;91.88;93263.16;5073053;28;20044;-76
2020/12/29 03:22:29;;;;;;;1.50;1.00;;;;;;;0.45;92.48;93270.34;5056297;28;20504;-76
2020/12/29 03:24:55;;;;;;;2.22;1.13;;;;;;;0.43;92.84;93264.63;5074225;28;20050;-76
2020/12/29 03:27:21;;;;;;;1.30;1.05;;;;;;;0.42;93.33;93268.22;5073919;28;20045;-76
2020/12/29 03:29:47;;;;;;;2.33;1.23;;;;;;;0.42;93.24;93277.75;5073705;28;20059;-76
2020/12/29 03:32:13;;;;;;;1.52;1.00;;;;;;;0.40;93.30;93278.00;5072438;28;20394;-75
2020/12/29 03:34:40;;;;;;;1.42;1.15;;;;;;;0.44;93.34;93280.88;5072775;28;20387;-76
2020/12/29 03:37:07;;;;;;;1.70;0.98;;;;;;;0.45;93.34;93292.75;5072754;28;20033;-75
2020/12/29 03:39:35;;;;;;;0.82;0.70;;;;;;;0.46;93.63;93289.91;5056275;28;20043;-75
2020/12/29 03:42:02;;;;;;;1.33;0.90;;;;;;;0.48;93.84;93305.16;5072290;28;20400;-75
2020/12/29 03:44:28;;;;;;;2.15;0.65;;;;;;;0.51;93.81;93310.66;5053264;28;20044;-75
2020/12/29 03:46:54;;;;;;;1.50;0.90;;;;;;;0.53;94.07;93315.56;5055712;28;20100;-76
2020/12/29 03:49:20;;;;;;;0.75;0.70;;;;;;;0.55;94.10;93316.91;5073387;28;20035;-76
2020/12/29 03:51:47;;;;;;;0.85;0.75;;;;;;;0.60;94.11;93316.97;5073252;28;20041;-75
2020/12/29 03:54:13;;;;;;;2.00;0.63;;;;;;;0.62;93.71;93309.00;5072652;28;20040;-75
2020/12/29 03:56:39;;;;;;;2.22;0.50;;;;;;;0.65;93.71;93305.97;5072998;28;20037;-75
2020/12/29 03:59:06;;;;;;;0.50;0.47;;;;;;;0.67;93.37;93311.66;5073261;28;20064;-75
2020/12/29 04:01:32;;;;;;;0.93;0.65;;;;;;;0.73;93.49;93310.72;5073460;28;20051;-76
2020/12/29 04:03:58;;;;;;;1.40;0.60;;;;;;;0.75;93.14;93305.34;5071723;28;20033;-76
2020/12/29 04:06:24;;;;;;;2.25;0.73;;;;;;;0.75;93.47;93311.28;5055598;28;20413;-76
2020/12/29 04:08:51;;;;;;;1.02;0.60;;;;;;;0.77;92.98;93309.25;5071464;28;20040;-76
2020/12/29 04:11:17;;;;;;;2.55;0.60;;;;;;;0.79;92.99;93314.94;5073041;28;20060;-76
2020/12/29 04:13:43;;;;;;;3.28;0.85;;;;;;;0.81;93.11;93322.47;5071438;28;20504;-76
2020/12/29 04:16:10;;;;;;;0.88;0.50;;;;;;;0.84;93.03;93323.78;5072226;28;20456;-76
2020/12/29 04:18:38;;;;;;;4.63;0.80;;;;;;;0.87;93.07;93336.22;5071634;28;20052;-77
2020/12/29 04:21:05;;;;;;;2.90;0.47;;;;;;;0.90;92.78;93335.75;5073117;28;20044;-76
2020/12/29 04:23:32;;;;;;;4.65;0.50;;;;;;;0.91;92.96;93345.84;5038980;28;20048;-76
2020/12/29 04:25:58;;;;;;;2.08;0.40;;;;;;;0.93;92.89;93348.97;5071438;28;20503;-77
2020/12/29 04:28:24;;;;;;;1.40;0.45;;;;;;;0.96;92.48;93351.06;5039362;28;20037;-77
2020/12/29 04:30:51;;;;;;;1.42;0.50;;;;;;;1.03;92.42;93356.09;5073353;28;20044;-77
2020/12/29 04:33:17;;;;;;;1.42;0.60;;;;;;;1.10;91.93;93363.69;5071549;28;20048;-77
2020/12/29 04:35:43;;;;;;;5.68;0.80;;;;;;;1.12;91.73;93365.00;5038778;28;20036;-76
2020/12/29 04:38:09;;;;;;;1.05;0.50;;;;;;;1.15;91.43;93368.91;5073013;28;20029;-75
2020/12/29 04:40:36;;;;;;;1.88;0.80;;;;;;;1.14;91.54;93381.03;5073076;28;20047;-76
2020/12/29 04:43:02;;;;;;;4.47;0.70;;;;;;;1.13;91.90;93376.88;5054632;28;20056;-78
2020/12/29 04:45:29;;;;;;;2.55;0.50;;;;;;;1.12;92.10;93383.06;5070933;28;20374;-77
2020/12/29 04:47:55;;;;;;;2.42;0.52;;;;;;;1.09;92.27;93386.13;5071521;28;20403;-77
2020/12/29 04:50:21;;;;;;;2.35;0.60;;;;;;;1.07;92.58;93387.34;5054755;28;20040;-77
2020/12/29 04:52:55;;;;;;;2.78;0.70;;;;;;;1.05;92.50;93384.22;5071304;28;20045;-78
2020/12/29 04:55:29;;;;;;;2.22;0.80;;;;;;;1.02;92.70;93398.38;5071791;28;20033;-77
2020/12/29 04:57:56;;;;;;;0.90;0.57;;;;;;;1.01;92.74;93407.94;5072803;28;20396;-77
2020/12/29 05:00:25;;;;;;;1.95;0.63;;;;;;;1.01;92.89;93405.34;5055146;28;20048;-77
2020/12/29 05:02:53;;;;;;;1.58;0.47;;;;;;;1.00;93.00;93419.25;5071461;28;20045;-78
2020/12/29 05:05:22;;;;;;;2.22;0.70;;;;;;;0.99;93.40;93422.09;5072513;28;20043;-78
2020/12/29 05:07:49;;;;;;;4.68;0.80;;;;;;;1.00;93.10;93431.38;5071657;28;20040;-78
2020/12/29 05:10:16;;;;;;;5.20;0.90;;;;;;;0.99;93.35;93438.34;5070713;28;20040;-78
2020/12/29 05:12:51;;;;;;;3.35;1.00;;;;;;;0.98;93.76;93444.50;5070850;28;20063;-77
2020/12/29 05:15:20;;;;;;;2.45;0.77;;;;;;;0.98;93.45;93448.88;5071938;28;20051;-77
2020/12/29 05:17:48;;;;;;;2.63;0.70;;;;;;;0.96;93.55;93451.69;5072619;28;20488;-77
2020/12/29 05:20:14;;;;;;;5.30;0.70;;;;;;;0.96;93.66;93450.91;5072563;28;20051;-77
2020/12/29 05:22:40;;;;;;;3.58;1.00;;;;;;;0.96;93.58;93461.22;5038473;28;20025;-77
2020/12/29 05:25:07;;;;;;;3.40;0.93;;;;;;;0.97;93.54;93460.22;5074473;28;20045;-77
2020/12/29 05:27:36;;;;;;;5.57;0.98;;;;;;;0.96;93.30;93468.97;5058691;28;20041;-77
2020/12/29 05:30:04;;;;;;;4.25;2.10;;;;;;;0.95;93.06;93482.88;5076313;28;20044;-77
2020/12/29 05:32:35;;;;;;;9.05;1.92;;;;;;;0.89;92.88;93479.44;5058186;28;20469;-77
2020/12/29 05:35:01;;;;;;;8.10;3.08;;;;;;;0.80;92.69;93484.19;5076228;28;20037;-77
2020/12/29 05:37:30;;;;;;;4.53;3.20;;;;;;;0.72;93.17;93484.53;5058152;28;20040;-77
2020/12/29 05:39:56;;;;;;;5.85;2.00;;;;;;;0.67;93.04;93483.66;5075178;28;20049;-77
2020/12/29 05:42:31;;;;;;;4.82;1.75;;;;;;;0.63;93.55;93498.00;5058251;28;20044;-77
2020/12/29 05:45:00;;;;;;;;;;;;;;;0.56;94.91;93496.34;5058913;28;20044;-77
2020/12/29 05:47:27;;;;;;;1.92;1.13;;;;;;;0.54;94.41;93502.75;5058114;28;19908;-77
2020/12/29 05:49:53;;;;;;;5.30;1.67;;;;;;;0.53;94.25;93506.34;5074161;28;20413;-78
2020/12/29 05:52:19;;;;;;;5.63;1.55;;;;;;;0.52;94.45;93502.97;5058056;28;20055;-77
2020/12/29 05:54:48;;;;;;;3.72;1.63;;;;;;;0.54;94.79;93500.16;5041406;28;20044;-77
2020/12/29 05:57:15;;;;;;;5.80;1.48;;;;;;;0.53;94.85;93499.38;5058175;28;20047;-77
2020/12/29 05:59:45;;;;;;;5.30;2.05;;;;;;;0.53;95.21;93507.13;5041067;28;20424;-78
2020/12/29 06:02:11;;;;;;;3.28;1.52;;;;;;;0.54;95.10;93505.31;5073860;28;20052;-78
2020/12/29 06:04:39;;;;;;;7.90;2.50;;;;;;;0.55;95.17;93514.63;5058449;28;20046;-77
2020/12/29 06:07:10;;;;;;;5.22;2.13;;;;;;;0.58;95.23;93521.91;5073969;28;20040;-77
2020/12/29 06:09:37;;;;;;;6.50;1.83;;;;;;;0.59;95.49;93523.50;5074770;28;20035;-77
2020/12/29 06:12:09;;;;;;;3.33;1.75;;;;;;;0.58;95.96;93524.47;5040932;28;20055;-77
2020/12/29 06:14:49;;;;;;;5.05;1.13;;;;;;;0.61;95.83;93534.34;5075339;28;20404;-77
2020/12/29 06:17:17;;;;;;;2.75;1.17;;;;;;;0.63;95.67;93537.50;5057557;28;20039;-77
2020/12/29 06:20:02;;;;;;;4.55;1.00;;;;;;;0.66;95.79;93547.34;5073709;28;20051;-76
2020/12/29 06:22:31;;;;;;;3.15;1.15;;;;;;;0.66;95.38;93542.19;5073953;28;20049;-77
2020/12/29 06:24:59;;;;;;;3.22;1.05;;;;;;;0.69;95.33;93549.44;5075125;28;20147;-77
2020/12/29 06:27:31;;;;;;;4.70;1.20;;;;;;;0.67;95.12;93555.84;5057267;28;20392;-77
2020/12/29 06:29:57;;;;;;;4.47;1.13;;;;;;;0.64;95.06;93551.94;5073651;28;20403;-76
2020/12/29 06:32:25;;;;;;;3.42;1.15;;;;;;;0.63;95.10;93559.91;5074436;28;20226;-76
2020/12/29 06:34:51;;;;;;;2.30;1.00;;;;;;;0.65;94.76;93563.03;5073990;28;20044;-77
2020/12/29 06:37:26;;;;;;;8.93;1.70;;;;;;;0.64;95.13;93571.78;5040557;28;20028;-77
2020/12/29 06:40:05;;;;;;;2.45;0.98;;;;;;;0.64;95.45;93570.00;5057192;28;20029;-77
2020/12/29 06:42:32;;;;;;;4.85;1.38;;;;;;;0.67;95.16;93581.63;5073600;28;20408;-77
2020/12/29 06:44:59;;;;;;;4.05;1.45;;;;;;;0.68;95.25;93588.38;5040693;28;20040;-77
2020/12/29 06:47:27;;;;;;;4.07;1.10;;;;;;;0.70;95.51;93599.25;5068433;28;20041;-77
2020/12/29 06:49:54;;;;;;;5.75;1.20;;;;;;;0.71;95.77;93603.38;5073708;28;20033;-77
2020/12/29 06:52:23;;;;;;;2.95;1.40;;;;;;;0.73;95.54;93599.56;5073492;28;20032;-77
2020/12/29 06:55:00;;;;;;;2.78;1.27;;;;;;;0.76;95.43;93611.25;5073083;28;20098;-77
2020/12/29 06:57:35;;;;;;;6.30;1.40;;;;;;;0.77;95.27;93617.97;5073273;28;20056;-77
2020/12/29 07:00:11;;;;;;;2.38;1.58;;;;;;;0.76;95.02;93614.59;5073104;28;20067;-77
2020/12/29 07:02:38;;;;;;;2.47;1.15;;;;;;;0.77;95.17;93620.53;5073438;28;20028;-77
2020/12/29 07:05:25;;;;;;;7.97;1.10;;;;;;;0.73;95.73;93633.09;5040217;28;20032;-77
2020/12/29 07:08:07;;;;;;;3.95;1.25;;;;;;;0.71;95.80;93634.34;5073581;28;20047;-77
2020/12/29 07:10:42;;;;;;;6.55;1.27;;;;;;;0.69;95.67;93636.34;5072479;28;20051;-77
2020/12/29 07:13:11;;;;;;;4.88;1.38;;;;;;;0.67;95.77;93636.56;5056604;28;20049;-78
2020/12/29 07:15:44;;;;;;;5.13;1.05;;;;;;;0.69;95.66;93644.88;5073240;28;20045;-77
2020/12/29 07:18:11;;;;;;;4.53;1.58;;;;;;;0.70;95.45;93650.84;5060047;28;20044;-77
2020/12/29 07:20:38;;;;;;;8.00;2.75;;;;;;;0.73;95.60;93655.53;5073951;28;20063;-77
2020/12/29 07:23:09;;;;;;;6.88;1.45;;;;;;;0.76;95.50;93655.09;5056011;28;20043;-77
2020/12/29 07:25:36;;;;;;;3.78;1.10;;;;;;;0.79;95.35;93670.88;5056458;28;20047;-77
2020/12/29 07:28:07;;;;;;;9.82;2.10;;;;;;;0.81;95.60;93675.81;5073303;28;20040;-77
2020/12/29 07:30:34;;;;;;;4.78;1.33;;;;;;;0.84;95.75;93680.53;5073387;28;20048;-77
2020/12/29 07:33:03;;;;;;;5.40;1.42;;;;;;;0.84;95.67;93679.75;5056320;28;20040;-77
2020/12/29 07:35:32;;;;;;;3.17;1.45;;;;;;;0.84;95.80;93690.06;5072547;28;20036;-77
2020/12/29 07:38:19;;;;;;;4.35;1.70;;;;;;;0.87;95.56;93697.34;5039622;28;20040;-77
2020/12/29 07:40:46;;;;;;;3.55;1.58;;;;;;;0.88;95.60;93704.84;5070959;28;20043;-77
2020/12/29 07:43:12;;;;;;;3.03;1.20;;;;;;;0.89;95.51;93709.00;5072131;28;20056;-77
2020/12/29 07:45:38;;;;;;;8.60;1.83;;;;;;;0.89;95.52;93715.97;5072731;28;20049;-77
2020/12/29 07:48:07;;;;;;;4.45;1.60;;;;;;;0.88;95.75;93729.88;5055643;28;20037;-77
2020/12/29 07:50:36;;;;;;;4.03;1.98;;;;;;;0.88;95.24;93735.03;5074286;28;20031;-77
2020/12/29 07:53:07;;;;;;;6.60;2.75;;;;;;;0.89;95.30;93741.78;5039426;28;20043;-77
2020/12/29 07:55:34;;;;;;;3.78;1.50;;;;;;;0.92;95.05;93749.84;5073331;28;20052;-77
2020/12/29 07:58:05;;;;;;;3.20;1.30;;;;;;;0.97;95.11;93754.34;5072037;28;20096;-77
2020/12/29 08:00:32;;;;;;;2.58;1.73;;;;;;;1.00;94.97;93761.63;5071583;28;20044;-77
2020/12/29 08:02:59;;;;;;;4.13;1.88;;;;;;;1.05;95.17;93769.50;5072922;28;20051;-77
2020/12/29 08:05:26;;;;;;;7.03;2.92;;;;;;;1.11;94.81;93767.78;5039744;28;20373;-77
2020/12/29 08:07:57;;;;;;;6.45;3.13;;;;;;;1.15;94.57;93780.00;5071341;28;20052;-77
2020/12/29 08:10:25;;;;;;;4.15;2.70;;;;;;;1.19;94.24;93786.31;5054935;28;20076;-78
2020/12/29 08:12:56;;;;;;;6.50;3.00;;;;;;;1.23;94.39;93796.97;5055320;28;20059;-77
2020/12/29 08:15:28;;;;;;;5.40;3.85;;;;;;;1.27;94.28;93805.84;5072797;28;20049;-77
2020/12/29 08:18:02;;;;;;;5.53;4.45;;;;;;;1.31;94.21;93804.38;5055681;28;20053;-77
2020/12/29 08:20:28;;;;;;;4.87;3.40;;;;;;;1.35;94.36;93804.72;5072466;28;20048;-77
2020/12/29 08:22:54;;;;;;;4.43;2.17;;;;;;;1.38;94.36;93814.59;5073083;28;20087;-77
2020/12/29 08:25:21;;;;;;;6.45;1.60;;;;;;;1.41;94.02;93824.47;5055377;28;20032;-77
2020/12/29 08:27:47;;;;;;;5.05;1.42;;;;;;;1.46;94.21;93823.78;5055415;28;20044;-77
2020/12/29 08:30:15;;;;;;;4.28;1.67;;;;;;;1.47;93.89;93833.91;5061990;28;20044;-77
2020/12/29 08:32:45;;;;;;;3.88;1.10;;;;;;;1.49;93.99;93834.47;5069763;28;20055;-77
2020/12/29 08:35:12;;;;;;;7.45;1.58;;;;;;;1.48;94.04;93845.78;5055312;28;20033;-77
2020/12/29 08:38:08;;;;;;;2.78;1.20;;;;;;;1.52;94.04;93848.72;5055286;28;20396;-77
2020/12/29 08:40:41;;;;;;;3.30;1.40;;;;;;;1.56;94.22;93857.59;5071804;28;20040;-77
2020/12/29 08:43:08;;;;;;;7.70;1.80;;;;;;;1.58;94.04;93861.50;5072734;28;20162;-77
2020/12/29 08:45:35;;;;;;;5.35;1.73;;;;;;;1.61;93.93;93865.44;5038761;28;20472;-77
2020/12/29 08:48:01;;;;;;;8.43;1.35;;;;;;;1.66;94.19;93878.47;5072966;28;20503;-77
2020/12/29 08:50:31;;;;;;;6.85;1.63;;;;;;;1.66;93.97;93883.66;5055155;28;20044;-77
2020/12/29 08:53:08;;;;;;;2.45;1.30;;;;;;;1.66;93.83;93891.41;5071631;28;20408;-77
2020/12/29 08:55:36;;;;;;;5.47;1.05;;;;;;;1.67;93.76;93897.34;5070997;28;20063;-77
2020/12/29 08:58:03;;;;;;;2.45;1.50;;;;;;;1.68;94.00;93906.66;5072529;28;20039;-77
2020/12/29 09:00:31;;;;;;;3.03;1.60;;;;;;;1.70;93.92;93915.75;5077014;28;20032;-77
2020/12/29 09:02:57;;;;;;;1.83;1.23;;;;;;;1.71;93.83;93927.66;5042308;28;20036;-76
2020/12/29 09:05:26;;;;;;;4.00;1.42;;;;;;;1.70;93.73;93944.19;5076496;28;20164;-75
2020/12/29 09:07:53;;;;;;;2.58;1.70;;;;;;;1.68;93.38;93959.13;5076327;28;20041;-76
2020/12/29 09:10:19;;;;;;;2.83;1.85;;;;;;;1.66;93.30;93979.22;5076442;28;20040;-76
2020/12/29 09:12:46;;;;;;;3.35;2.50;;;;;;;1.63;93.48;93983.00;5041908;28;21124;-77
2020/12/29 09:15:14;;;;;;;2.67;1.77;;;;;;;1.63;93.69;93989.97;5074791;28;20057;-77
2020/12/29 09:17:44;;;;;;;3.65;2.08;;;;;;;1.65;93.69;93997.50;5076683;28;20032;-77
2020/12/29 09:20:30;;;;;;;5.22;2.50;;;;;;;1.66;94.01;94012.81;5075305;28;20043;-77
2020/12/29 09:23:03;;;;;;;2.65;1.90;;;;;;;1.69;93.74;94020.09;5058807;28;20045;-79
2020/12/29 09:25:38;;;;;;;2.22;1.55;;;;;;;1.73;93.28;94023.81;5065548;28;20408;-77
2020/12/29 09:28:24;;;;;;;3.15;2.17;;;;;;;1.75;93.00;94032.13;5075988;28;20412;-78
2020/12/29 09:31:01;;;;;;;3.20;1.60;;;;;;;1.79;92.65;94040.22;5074192;28;20051;-77
2020/12/29 09:33:29;;;;;;;3.20;0.80;;;;;;;1.82;92.42;94045.72;5058472;28;20028;-77
2020/12/29 09:35:58;;;;;;;1.80;1.02;;;;;;;1.83;91.59;94047.31;5074674;28;20044;-77
2020/12/29 09:38:25;;;;;;;1.45;0.90;;;;;;;1.85;91.18;94049.66;5042031;28;20044;-77
2020/12/29 09:40:52;;;;;;;2.40;1.38;;;;;;;1.89;91.34;94062.91;5074325;28;20048;-77
2020/12/29 09:43:18;;;;;;;1.80;1.10;;;;;;;1.92;91.14;94071.03;5074553;28;20476;-77
2020/12/29 09:45:47;;;;;;;1.60;1.25;;;;;;;1.93;91.00;94074.38;5041939;28;20051;-77
2020/12/29 09:48:15;;;;;;;1.02;0.93;;;;;;;1.94;90.21;94076.75;5025917;28;20036;-77
2020/12/29 09:50:42;;;;;;;1.40;1.00;;;;;;;1.97;90.72;94088.44;5074225;28;20056;-77
2020/12/29 09:53:08;;;;;;;0.95;0.80;;;;;;;1.97;90.25;94085.84;5041550;28;20036;-77
2020/12/29 09:55:35;;;;;;;0.88;0.80;;;;;;;1.99;90.71;94091.59;5074722;28;20036;-77
2020/12/29 09:58:01;;;;;;;1.00;0.90;;;;;;;2.01;90.33;94092.16;5075733;28;20396;-77
2020/12/29 10:00:27;;;;;;;0.75;0.75;;;;;;;2.01;90.08;94090.34;5058447;28;20051;-77
2020/12/29 10:02:53;;;;;;;0.70;0.60;;;;;;;2.05;90.04;94097.69;5074205;28;20051;-78
2020/12/29 10:05:19;;;;;;;0.60;0.60;;;;;;;2.07;90.09;94109.38;5058130;28;20044;-77
2020/12/29 10:07:46;;;;;;;0.52;0.50;;;;;;;2.07;89.58;94109.38;5057819;28;20032;-77
2020/12/29 10:10:13;;;;;;;0.77;0.70;;;;;;;2.08;89.24;94115.31;5074145;28;20040;-77
2020/12/29 10:12:39;;;;;;;0.60;0.45;;;;;;;2.12;89.30;94131.97;5057833;28;20492;-78
2020/12/29 10:15:06;;;;;;;0.60;0.60;;;;;;;2.17;89.50;94139.84;5074379;28;20056;-77
2020/12/29 10:17:33;;;;;;;0.80;0.80;;;;;;;2.23;89.07;94142.34;5057526;28;20040;-77
2020/12/29 10:19:59;;;;;;;0.90;0.75;;;;;;;2.28;89.02;94148.63;5057551;28;20044;-77
2020/12/29 10:22:26;;;;;;;1.10;1.00;;;;;;;2.29;88.74;94152.78;5057447;28;20047;-78
2020/12/29 10:24:53;;;;;;;1.05;0.98;;;;;;;2.31;88.92;94161.91;5073637;28;20392;-77
2020/12/29 10:27:19;;;;;;;1.13;1.00;;;;;;;2.35;88.64;94165.63;5073746;28;20041;-79
2020/12/29 10:29:45;;;;;;;1.67;1.15;;;;;;;2.33;88.08;94161.66;5073560;28;20115;-77
2020/12/29 10:32:12;;;;;;;0.88;0.77;;;;;;;2.35;88.17;94165.63;5074018;28;20048;-77
2020/12/29 10:34:38;;;;;;;0.85;0.80;;;;;;;2.35;88.36;94157.06;5074141;28;20037;-77
2020/12/29 10:37:04;;;;;;;1.17;1.08;;;;;;;2.39;88.60;94168.53;5040721;28;20460;-78
2020/12/29 10:39:30;;;;;;;2.40;1.20;;;;;;;2.43;88.39;94169.69;5057703;28;20040;-77
2020/12/29 10:41:57;;;;;;;1.10;1.00;;;;;;;2.50;88.71;94178.13;5073393;28;20037;-78
2020/12/29 10:44:23;;;;;;;1.40;1.30;;;;;;;2.56;89.01;94171.25;5073822;28;20155;-77
2020/12/29 10:46:49;;;;;;;1.98;1.20;;;;;;;2.58;88.28;94172.63;5056477;28;20056;-78
2020/12/29 10:49:15;;;;;;;1.15;0.90;;;;;;;2.62;88.54;94185.91;5073410;28;20075;-79
2020/12/29 10:51:41;;;;;;;0.95;0.70;;;;;;;2.63;88.61;94190.06;5040249;28;20408;-77
2020/12/29 10:54:08;;;;;;;2.05;0.90;;;;;;;2.64;88.63;94187.25;5073137;28;20071;-77
2020/12/29 10:56:35;;;;;;;3.35;1.75;;;;;;;2.67;87.95;94193.78;5057071;28;20405;-78
2020/12/29 10:59:02;;;;;;;1.13;1.00;;;;;;;2.71;88.47;94186.34;5073605;28;20044;-77
2020/12/29 11:01:29;;;;;;;1.30;0.85;;;;;;;2.79;88.36;94191.19;5074479;28;20048;-78
2020/12/29 11:03:55;;;;;;;1.13;1.00;;;;;;;2.86;88.68;94202.25;5056757;28;20048;-78
2020/12/29 11:06:22;;;;;;;2.33;0.90;;;;;;;2.93;88.13;94200.31;5074438;28;20048;-77
2020/12/29 11:08:50;;;;;;;1.67;0.80;;;;;;;2.95;87.59;94198.28;5057073;28;20370;-78
2020/12/29 11:11:17;;;;;;;1.67;1.15;;;;;;;2.88;86.36;94207.16;5039792;28;20477;-77
2020/12/29 11:13:44;;;;;;;3.05;1.33;;;;;;;2.85;87.28;94204.03;5072831;28;20049;-78
2020/12/29 11:16:21;;;;;;;2.15;0.95;;;;;;;2.86;86.69;94202.25;5039828;28;20052;-77
2020/12/29 11:18:49;;;;;;;2.47;1.10;;;;;;;2.93;87.37;94200.31;5072980;28;20044;-77
2020/12/29 11:21:18;;;;;;;1.67;0.90;;;;;;;3.01;87.75;94210.34;5074174;28;20472;-77
2020/12/29 11:23:45;;;;;;;2.88;1.30;;;;;;;3.09;87.35;94213.59;5073024;28;20040;-78
2020/12/29 11:26:20;;;;;;;2.95;1.52;;;;;;;3.16;86.72;94206.50;5072940;28;20040;-78
2020/12/29 11:28:50;;;;;;;4.57;1.70;;;;;;;3.19;86.92;94198.28;5056024;28;20048;-77
2020/12/29 11:31:18;;;;;;;1.10;0.90;;;;;;;3.23;86.58;94207.16;5072314;28;20048;-78
2020/12/29 11:33:48;;;;;;;1.30;0.90;;;;;;;3.26;86.54;94217.09;5073275;28;20075;-78
2020/12/29 11:36:19;;;;;;;2.17;1.17;;;;;;;3.24;86.15;94212.13;5073804;28;20051;-77
2020/12/29 11:38:46;;;;;;;1.25;1.10;;;;;;;3.21;86.26;94210.00;5072047;28;20041;-77
2020/12/29 11:41:13;;;;;;;1.50;1.02;;;;;;;3.23;86.61;94217.53;5072682;28;20041;-77
2020/12/29 11:43:40;;;;;;;1.95;1.40;;;;;;;3.21;86.02;94217.78;5055501;28;20056;-77
2020/12/29 11:46:08;;;;;;;1.40;1.25;;;;;;;3.17;85.77;94229.59;5072509;28;20063;-78